Bahia Uno — ECFT — position and weather

sailwx.info

Track history (hours):
 
Tides and Currents Weather Stations Pressure Air Temp Water Temp Dewpoint Dewpoint Depression Visibility Wind Speed Wind Dir Waves Ship Positions

Bahia Uno

Last reported at 2017-Nov-19 01:38 UTC. Time now 2017-Nov-21 08:16 UTC.
Position N 36°09' W 005°26'.

Length 70 m; draft 5.5 m.

Type: Ship. MMSI: 224127820.

Date/timePositionNaut miles runAvg speedWind from/ knotsBaromVisibWave heightAir tempDewpointWater temp
2017-Nov-19 01:38N 36°09' W 005°26'3 0.1
2017-Nov-17 01:54N 36°06' W 005°24'0 0.1
2017-Nov-17 01:05N 36°06' W 005°24'0 0.1
2017-Nov-17 00:49N 36°06' W 005°24'0 0.0
2017-Nov-17 00:29N 36°06' W 005°24'0 0.1
2017-Nov-16 22:33N 36°06' W 005°24'2 0.0
2017-Nov-15 02:45N 36°08' W 005°25'1 0.0
2017-Nov-13 01:21N 36°08' W 005°26'0 0.0
2017-Nov-13 01:00N 36°08' W 005°26'0 0.0
2017-Nov-13 00:12N 36°08' W 005°26'0 0.0
2017-Nov-12 23:48N 36°08' W 005°26'0 0.8
2017-Nov-12 23:30N 36°09' W 005°26'0 0.1
2017-Nov-12 20:27N 36°09' W 005°26'0 0.1
2017-Nov-12 18:52N 36°09' W 005°26'0 0.0
2017-Nov-12 16:27N 36°09' W 005°26'0 0.0
2017-Nov-12 15:31N 36°09' W 005°26'0 0.2
2017-Nov-12 15:29N 36°09' W 005°26'0 0.9
2017-Nov-12 15:00N 36°09' W 005°26'1 2.1
2017-Nov-12 14:29N 36°08' W 005°25'0 0.0
2017-Nov-11 21:05N 36°08' W 005°25'0 1.2
2017-Nov-11 21:00N 36°08' W 005°25'2 4.5
2017-Nov-11 20:30N 36°06' W 005°24'0 0.1
2017-Nov-11 19:44N 36°06' W 005°24'0 0.1
2017-Nov-11 18:20N 36°06' W 005°24'0 0.0
2017-Nov-11 17:38N 36°06' W 005°24'0 0.0
2017-Nov-11 17:27N 36°06' W 005°24'1 1.5
2017-Nov-11 17:00N 36°07' W 005°24'1 0.1
2017-Nov-11 06:38N 36°06' W 005°24'0 0.1
2017-Nov-11 06:29N 36°06' W 005°24'0 0.0
2017-Nov-11 05:53N 36°06' W 005°24'0 0.0
2017-Nov-11 05:24N 36°06' W 005°24'0 0.0
2017-Nov-11 04:58N 36°06' W 005°24'0 0.0
2017-Nov-11 04:25N 36°06' W 005°24'0 0.2
2017-Nov-11 04:01N 36°06' W 005°24'0 0.2
2017-Nov-11 03:30N 36°06' W 005°24'1 0.1
2017-Nov-10 21:00N 36°05' W 005°24'0 0.1
2017-Nov-10 20:30N 36°05' W 005°24'0 0.2
2017-Nov-10 20:00N 36°05' W 005°24'  
Track history (hours):
 
Tides and Currents Weather Stations Pressure Air Temp Water Temp Dewpoint Dewpoint Depression Visibility Wind Speed Wind Dir Waves Ship Positions

Bahia Uno

Last reported at 2017-Nov-19 01:38 UTC. Time now 2017-Nov-21 08:16 UTC.
Position N 36°09' W 005°26'.

Length 70 m; draft 5.5 m.

Type: Ship. MMSI: 224127820.

Date/timePositionNaut miles runAvg speedWind from/ knotsBaromVisibWave heightAir tempDewpointWater temp
2017-Nov-19 01:38N 36°09' W 005°26'3 0.1
2017-Nov-17 01:54N 36°06' W 005°24'0 0.1
2017-Nov-17 01:05N 36°06' W 005°24'0 0.1
2017-Nov-17 00:49N 36°06' W 005°24'0 0.0
2017-Nov-17 00:29N 36°06' W 005°24'0 0.1
2017-Nov-16 22:33N 36°06' W 005°24'2 0.0
2017-Nov-15 02:45N 36°08' W 005°25'1 0.0
2017-Nov-13 01:21N 36°08' W 005°26'0 0.0
2017-Nov-13 01:00N 36°08' W 005°26'0 0.0
2017-Nov-13 00:12N 36°08' W 005°26'0 0.0
2017-Nov-12 23:48N 36°08' W 005°26'0 0.8
2017-Nov-12 23:30N 36°09' W 005°26'0 0.1
2017-Nov-12 20:27N 36°09' W 005°26'0 0.1
2017-Nov-12 18:52N 36°09' W 005°26'0 0.0
2017-Nov-12 16:27N 36°09' W 005°26'0 0.0
2017-Nov-12 15:31N 36°09' W 005°26'0 0.2
2017-Nov-12 15:29N 36°09' W 005°26'0 0.9
2017-Nov-12 15:00N 36°09' W 005°26'1 2.1
2017-Nov-12 14:29N 36°08' W 005°25'0 0.0
2017-Nov-11 21:05N 36°08' W 005°25'0 1.2
2017-Nov-11 21:00N 36°08' W 005°25'2 4.5
2017-Nov-11 20:30N 36°06' W 005°24'0 0.1
2017-Nov-11 19:44N 36°06' W 005°24'0 0.1
2017-Nov-11 18:20N 36°06' W 005°24'0 0.0
2017-Nov-11 17:38N 36°06' W 005°24'0 0.0
2017-Nov-11 17:27N 36°06' W 005°24'1 1.5
2017-Nov-11 17:00N 36°07' W 005°24'1 0.1
2017-Nov-11 06:38N 36°06' W 005°24'0 0.1
2017-Nov-11 06:29N 36°06' W 005°24'0 0.0
2017-Nov-11 05:53N 36°06' W 005°24'0 0.0
2017-Nov-11 05:24N 36°06' W 005°24'0 0.0
2017-Nov-11 04:58N 36°06' W 005°24'0 0.0
2017-Nov-11 04:25N 36°06' W 005°24'0 0.2
2017-Nov-11 04:01N 36°06' W 005°24'0 0.2
2017-Nov-11 03:30N 36°06' W 005°24'1 0.1
2017-Nov-10 21:00N 36°05' W 005°24'0 0.1
2017-Nov-10 20:30N 36°05' W 005°24'0 0.2
2017-Nov-10 20:00N 36°05' W 005°24'  

Dump ship's entire track history